首页
METAR-TAF:

METAR-TAF

机场 :

迈克蒂亚西蒙·玻利瓦尔国际机场

卡拉卡斯, 委内瑞拉

纬度: 10-36N, 经度: 066-59W, 海拔: 43米

当前天气观测

该预报发布于28分钟前的21:00 UTC
风速3节,风向北转东北
温度 28°C
湿度 79%
气压 1009 hPa
能见度10公里或以上
阴天层高于1300英尺
雷暴

METAR: SVMI 222100Z 02003KT 9999 TS OVC013 CB 28/24 Q1009

时间: 17:28 (21:28 UTC)

预报

该预报发布于11小时和28分钟前的10:00 UTC
预报有效从22日的 12点(UTC)到 23日的 12点(UTC)
风速5节,风向
能见度10公里或以上
少量云层高于2000英尺
散云层高于10000英尺
从 22日的 1430点(UTC)
风速10节,风向多变
能见度10公里或以上
散云层高于1300英尺
短暂存在
从 22日的 21点(UTC)到 23日的 02点(UTC)
多云层高于1300英尺

TAF: SVMI 221000Z 2212/2312 09005KT 9999 FEW020 SCT100 TX32/16Z TN24/10Z FM221430 VRB10KT 9999 SCT013 TEMPO 2221/2302 BKN013

超过4000个机场的气象观测和天气预报(METAR&TAF报告)。

可查询的气象台以黄色和红色小点在地图上表示。

将鼠标移到小点上方,可查看气象台名称。

然后点击查看天气观测和预报。

如需切换地图:点击带黑十字的绿色按钮放大地图;点击带横线的绿色按钮缩小地图;或者点击绿色箭头查看邻近地区的地图。


METAR-TAF: